createdAt,value
2018-06-03T00:02:16.088Z,68.79
2018-06-03T00:05:18.660Z,68.15
2018-06-03T00:08:21.210Z,68.46
2018-06-03T00:11:23.735Z,69.34
2018-06-03T00:14:26.281Z,68.39
2018-06-03T00:17:28.845Z,68.92
2018-06-03T00:20:43.103Z,68.84
2018-06-03T00:23:45.582Z,69.20
2018-06-03T00:26:48.119Z,68.45
2018-06-03T00:29:50.608Z,68.36
2018-06-03T00:32:53.108Z,69.30
2018-06-03T00:36:07.320Z,69.69
2018-06-03T00:39:09.904Z,68.81
2018-06-03T00:42:12.417Z,69.06
2018-06-03T00:45:14.926Z,68.79
2018-06-03T00:48:17.417Z,68.60
2018-06-03T00:51:19.914Z,68.90
2018-06-03T00:54:22.407Z,69.58
2018-06-03T00:57:24.928Z,68.89
2018-06-03T01:00:27.504Z,68.46
2018-06-03T01:03:30.011Z,69.39
2018-06-03T01:06:32.567Z,69.28
2018-06-03T01:09:35.043Z,69.35
2018-06-03T01:12:38.335Z,69.19
2018-06-03T01:15:40.842Z,69.25
2018-06-03T01:18:43.452Z,69.63
2018-06-03T01:21:45.967Z,68.88
2018-06-03T01:24:48.466Z,69.23
2018-06-03T01:27:50.951Z,69.24
2018-06-03T01:30:53.458Z,69.23
2018-06-03T01:33:55.974Z,69.92
2018-06-03T01:36:58.493Z,69.83
2018-06-03T01:40:00.966Z,69.84
2018-06-03T01:43:03.486Z,69.87
2018-06-03T01:46:05.990Z,69.43
2018-06-03T01:49:08.480Z,69.59
2018-06-03T01:52:11.003Z,69.64
2018-06-03T01:55:13.524Z,69.37
2018-06-03T01:58:16.012Z,69.43
2018-06-03T02:01:18.494Z,69.67
2018-06-03T02:04:20.986Z,71.09
2018-06-03T02:07:23.479Z,70.75
2018-06-03T02:10:25.983Z,70.54
2018-06-03T02:13:28.475Z,70.07
2018-06-03T02:16:31.053Z,70.36
2018-06-03T02:19:33.572Z,70.47
2018-06-03T02:22:36.090Z,70.54
2018-06-03T02:25:38.628Z,70.46
2018-06-03T02:28:41.132Z,70.17
2018-06-03T02:31:43.653Z,70.16
2018-06-03T02:34:46.164Z,70.54
2018-06-03T02:37:48.667Z,69.95
2018-06-03T02:40:51.202Z,71.80
2018-06-03T02:43:53.703Z,70.94
2018-06-03T02:46:56.203Z,70.91
2018-06-03T02:49:58.719Z,70.42
2018-06-03T02:53:01.240Z,70.81
2018-06-03T02:56:03.730Z,70.61
2018-06-03T02:59:06.252Z,70.54
2018-06-03T03:02:08.731Z,70.98
2018-06-03T03:05:11.244Z,70.05
2018-06-03T03:08:13.751Z,70.47
2018-06-03T03:11:16.219Z,69.48
2018-06-03T03:14:18.703Z,69.97
2018-06-03T03:17:21.209Z,69.96
2018-06-03T03:20:23.689Z,70.92
2018-06-03T03:23:26.179Z,70.76
2018-06-03T03:26:28.658Z,70.73
2018-06-03T03:29:31.183Z,70.76
2018-06-03T03:32:33.666Z,70.59
2018-06-03T03:35:36.165Z,71.22
2018-06-03T03:38:38.690Z,70.80
2018-06-03T03:41:41.185Z,70.52
2018-06-03T03:44:43.663Z,70.61
2018-06-03T03:47:46.886Z,70.31
2018-06-03T03:50:49.358Z,70.40
2018-06-03T03:53:51.854Z,70.63
2018-06-03T03:56:54.341Z,70.88
2018-06-03T03:59:56.836Z,69.88
2018-06-03T04:02:59.351Z,70.85
2018-06-03T04:06:01.818Z,70.73
2018-06-03T04:09:04.320Z,70.36
2018-06-03T04:12:06.815Z,70.58
2018-06-03T04:15:09.333Z,69.78
2018-06-03T04:18:11.947Z,69.75
2018-06-03T04:21:14.438Z,70.81
2018-06-03T04:24:16.917Z,71.17
2018-06-03T04:27:19.411Z,71.30
2018-06-03T04:30:21.898Z,70.58
2018-06-03T04:33:24.378Z,70.57
2018-06-03T04:36:26.954Z,70.04
2018-06-03T04:39:29.461Z,70.44
2018-06-03T04:42:31.933Z,70.60
2018-06-03T04:45:34.454Z,69.72
2018-06-03T04:48:36.943Z,69.69
2018-06-03T04:51:39.435Z,69.38
2018-06-03T04:54:41.963Z,69.36
2018-06-03T04:57:44.463Z,69.51
2018-06-03T05:00:46.937Z,69.21
2018-06-03T05:03:49.443Z,69.30
2018-06-03T05:06:51.952Z,69.03
2018-06-03T05:09:54.487Z,69.31
2018-06-03T05:12:57.039Z,69.13
2018-06-03T05:15:59.554Z,69.18
2018-06-03T05:19:02.079Z,69.08
2018-06-03T05:22:04.587Z,69.04
2018-06-03T05:25:07.135Z,69.00
2018-06-03T05:28:09.663Z,68.88
2018-06-03T05:31:12.141Z,68.76
2018-06-03T05:34:14.629Z,68.14
2018-06-03T05:37:17.110Z,68.70
2018-06-03T05:40:19.628Z,68.81
2018-06-03T05:43:22.105Z,68.71
2018-06-03T05:46:24.675Z,68.58
2018-06-03T05:49:27.180Z,68.81
2018-06-03T05:52:29.673Z,69.16
2018-06-03T05:55:32.246Z,68.44
2018-06-03T05:58:34.748Z,68.67
2018-06-03T06:01:37.286Z,68.33
2018-06-03T06:04:39.825Z,68.68
2018-06-03T06:07:42.414Z,69.24
2018-06-03T06:10:44.964Z,69.91
2018-06-03T06:13:47.482Z,70.21
2018-06-03T06:16:50.017Z,69.32
2018-06-03T06:19:52.543Z,69.18
2018-06-03T06:22:55.171Z,69.32
2018-06-03T06:25:58.490Z,69.17
2018-06-03T06:29:01.006Z,69.06
2018-06-03T06:32:03.516Z,69.21
2018-06-03T06:35:06.058Z,69.59
2018-06-03T06:38:08.532Z,68.94
2018-06-03T06:41:11.696Z,68.90
2018-06-03T06:44:15.141Z,68.18
2018-06-03T06:47:17.648Z,68.96
2018-06-03T06:50:20.631Z,68.76
2018-06-03T06:53:23.150Z,68.27
2018-06-03T06:56:25.738Z,68.64
2018-06-03T06:59:28.250Z,68.49
2018-06-03T07:02:30.786Z,68.48
2018-06-03T07:05:33.346Z,68.15
2018-06-03T07:08:35.840Z,67.76
2018-06-03T07:11:38.362Z,67.91
2018-06-03T07:14:40.917Z,68.75
2018-06-03T07:17:43.559Z,67.99
2018-06-03T07:20:46.425Z,68.26
2018-06-03T07:23:48.931Z,67.89
2018-06-03T07:26:51.510Z,68.00
2018-06-03T07:29:54.125Z,68.09
2018-06-03T07:32:56.661Z,68.07
2018-06-03T07:35:59.180Z,67.56
2018-06-03T07:39:01.690Z,68.74
2018-06-03T07:42:04.224Z,68.91
2018-06-03T07:45:06.739Z,68.56
2018-06-03T07:48:09.276Z,68.16
2018-06-03T07:51:11.806Z,68.25
2018-06-03T07:54:14.358Z,68.14
2018-06-03T07:57:16.950Z,67.83
2018-06-03T08:00:19.592Z,67.84
2018-06-03T08:03:22.169Z,67.83
2018-06-03T08:06:24.704Z,67.75
2018-06-03T08:09:27.230Z,68.07
2018-06-03T08:12:29.776Z,68.11
2018-06-03T08:15:32.430Z,67.96
2018-06-03T08:18:34.956Z,67.37
2018-06-03T08:21:37.477Z,67.15
2018-06-03T08:24:40.039Z,67.13
2018-06-03T08:27:42.574Z,67.02
2018-06-03T08:30:45.224Z,66.98
2018-06-03T08:33:48.462Z,67.59
2018-06-03T08:36:50.988Z,68.29
2018-06-03T08:39:53.542Z,69.06
2018-06-03T08:42:56.101Z,69.06
2018-06-03T08:45:58.710Z,68.32
2018-06-03T08:49:02.022Z,68.51
2018-06-03T08:52:04.564Z,68.47
2018-06-03T08:55:07.073Z,68.42
2018-06-03T08:58:09.625Z,67.87
2018-06-03T09:01:12.225Z,67.54
2018-06-03T09:04:14.774Z,67.40
2018-06-03T09:07:17.294Z,68.28
2018-06-03T09:10:19.849Z,67.88
2018-06-03T09:13:24.158Z,68.02
2018-06-03T09:16:26.777Z,67.76
2018-06-03T09:19:29.307Z,67.63
2018-06-03T09:22:31.909Z,68.32
2018-06-03T09:25:34.446Z,67.92
2018-06-03T09:28:37.075Z,67.30
2018-06-03T09:31:39.644Z,67.99
2018-06-03T09:34:42.253Z,68.00
2018-06-03T09:37:44.801Z,68.24
2018-06-03T09:40:47.421Z,68.12
2018-06-03T09:43:50.037Z,69.01
2018-06-03T09:46:52.665Z,68.99
2018-06-03T09:49:55.181Z,69.42
2018-06-03T09:52:58.033Z,69.37
2018-06-03T09:56:00.589Z,69.96
2018-06-03T09:59:03.239Z,70.50
2018-06-03T10:02:05.803Z,71.40
2018-06-03T10:05:08.389Z,70.77
2018-06-03T10:08:10.964Z,70.55
2018-06-03T10:11:13.528Z,70.20
2018-06-03T10:14:16.175Z,70.07
2018-06-03T10:17:18.866Z,69.98
2018-06-03T10:20:21.444Z,69.85
2018-06-03T10:23:24.016Z,69.50
2018-06-03T10:26:26.609Z,70.47
2018-06-03T10:29:29.190Z,71.09
2018-06-03T10:32:31.754Z,71.25
2018-06-03T10:35:34.344Z,70.94
2018-06-03T10:38:36.991Z,70.11
2018-06-03T10:41:40.700Z,69.74
2018-06-03T10:44:43.329Z,69.54
2018-06-03T10:47:46.006Z,68.17
2018-06-03T10:50:48.563Z,67.60
2018-06-03T10:53:51.102Z,67.43
2018-06-03T10:56:54.800Z,68.24
2018-06-03T10:59:57.447Z,67.50
2018-06-03T11:03:00.040Z,66.46
2018-06-03T11:06:02.634Z,65.91
2018-06-03T11:09:05.208Z,66.33
2018-06-03T11:12:07.747Z,65.98
2018-06-03T11:15:10.270Z,65.32
2018-06-03T11:18:12.908Z,65.19
2018-06-03T11:21:15.466Z,65.03
2018-06-03T11:24:18.623Z,65.52
2018-06-03T11:27:21.226Z,65.44
2018-06-03T11:30:23.788Z,65.81
2018-06-03T11:33:26.366Z,65.12
2018-06-03T11:36:28.925Z,65.78
2018-06-03T11:39:31.530Z,65.90
2018-06-03T11:42:34.104Z,65.57
2018-06-03T11:45:42.181Z,65.53
2018-06-03T11:48:44.826Z,66.24
2018-06-03T11:51:47.851Z,66.46
2018-06-03T11:54:50.910Z,65.98
2018-06-03T11:57:55.558Z,66.17
2018-06-03T12:01:06.367Z,64.94
2018-06-03T12:04:09.176Z,64.35
2018-06-03T12:07:12.329Z,63.30
2018-06-03T12:10:16.353Z,62.88
2018-06-03T12:13:19.286Z,63.53
2018-06-03T12:16:22.212Z,63.38
2018-06-03T12:19:24.994Z,63.19
2018-06-03T12:22:28.675Z,63.78
2018-06-03T12:25:31.537Z,62.97
2018-06-03T12:28:34.391Z,62.07
2018-06-03T12:31:38.493Z,61.25
2018-06-03T12:34:41.629Z,60.56
2018-06-03T12:37:44.276Z,60.58
2018-06-03T12:40:46.819Z,60.35
2018-06-03T12:43:49.412Z,60.93
2018-06-03T12:46:51.957Z,60.82
2018-06-03T12:49:54.569Z,60.32
2018-06-03T12:52:58.282Z,60.00
2018-06-03T12:56:01.967Z,59.53
2018-06-03T12:59:04.682Z,60.72
2018-06-03T13:02:07.258Z,60.55
2018-06-03T13:05:09.856Z,60.06
2018-06-03T13:08:12.443Z,59.56
2018-06-03T13:11:15.045Z,59.57
2018-06-03T13:14:17.592Z,59.00
2018-06-03T13:17:20.198Z,59.40
2018-06-03T13:20:22.741Z,59.94
2018-06-03T13:23:25.400Z,59.92
2018-06-03T13:26:27.921Z,58.41
2018-06-03T13:29:30.563Z,58.53
2018-06-03T13:32:33.371Z,57.89
2018-06-03T13:35:35.968Z,58.01
2018-06-03T13:38:38.542Z,57.50
2018-06-03T13:41:41.094Z,56.92
2018-06-03T13:44:43.676Z,56.95
2018-06-03T13:47:46.223Z,56.65
2018-06-03T13:50:49.537Z,56.13
2018-06-03T13:53:52.121Z,56.00
2018-06-03T13:56:54.674Z,56.00
2018-06-03T13:59:57.271Z,55.94
2018-06-03T14:02:59.840Z,55.36
2018-06-03T14:06:02.399Z,55.52
2018-06-03T14:09:05.025Z,55.40
2018-06-03T14:12:07.581Z,54.92
2018-06-03T14:15:10.177Z,55.18
2018-06-03T14:18:12.783Z,55.87
2018-06-03T14:21:15.500Z,54.92
2018-06-03T14:24:18.088Z,54.61
2018-06-03T14:27:20.703Z,54.79
2018-06-03T14:30:23.371Z,53.94
2018-06-03T14:33:26.016Z,54.24
2018-06-03T14:36:28.656Z,54.41
2018-06-03T14:39:31.239Z,54.32
2018-06-03T14:42:33.774Z,54.11
2018-06-03T14:45:36.362Z,54.03
2018-06-03T14:48:38.946Z,53.80
2018-06-03T14:51:41.621Z,54.19
2018-06-03T14:54:44.246Z,53.65
2018-06-03T14:57:46.765Z,53.96
2018-06-03T15:00:49.417Z,53.35
2018-06-03T15:03:52.036Z,53.23
2018-06-03T15:06:54.560Z,53.11
2018-06-03T15:09:57.148Z,53.56
2018-06-03T15:12:59.718Z,53.70
2018-06-03T15:16:02.367Z,53.39
2018-06-03T15:19:04.992Z,53.16
2018-06-03T15:22:07.584Z,52.85
2018-06-03T15:25:10.213Z,53.21
2018-06-03T15:28:12.807Z,53.15
2018-06-03T15:31:15.529Z,53.56
2018-06-03T15:34:19.383Z,53.79
2018-06-03T15:37:22.093Z,52.10
2018-06-03T15:40:24.736Z,52.89
2018-06-03T15:43:27.406Z,52.81
2018-06-03T15:46:30.092Z,54.05
2018-06-03T15:49:32.655Z,54.19
2018-06-03T15:52:35.204Z,53.42
2018-06-03T15:55:37.852Z,54.47
2018-06-03T15:58:40.439Z,54.01
2018-06-03T16:01:43.137Z,54.01
2018-06-03T16:04:45.772Z,54.86
2018-06-03T16:07:48.443Z,55.52
2018-06-03T16:10:51.060Z,56.45
2018-06-03T16:13:53.677Z,56.77
2018-06-03T16:16:56.374Z,57.51
2018-06-03T16:19:59.168Z,57.00
2018-06-03T16:23:01.966Z,56.93
2018-06-03T16:26:04.665Z,57.30
2018-06-03T16:29:07.345Z,56.39
2018-06-03T16:32:10.023Z,57.14
2018-06-03T16:35:12.695Z,57.54
2018-06-03T16:38:15.859Z,57.53
2018-06-03T16:41:19.094Z,57.42
2018-06-03T16:44:23.234Z,57.38
2018-06-03T16:47:25.815Z,57.55
2018-06-03T16:50:28.979Z,57.48
2018-06-03T16:53:31.692Z,57.74
2018-06-03T16:56:34.467Z,58.29
2018-06-03T16:59:37.209Z,57.76
2018-06-03T17:02:39.806Z,58.05
2018-06-03T17:05:42.615Z,58.53
2018-06-03T17:08:45.226Z,58.51
2018-06-03T17:11:48.123Z,59.28
2018-06-03T17:14:51.687Z,59.53
2018-06-03T17:17:54.461Z,58.93
2018-06-03T17:20:57.163Z,58.87
2018-06-03T17:23:59.836Z,58.72
2018-06-03T17:27:02.635Z,58.54
2018-06-03T17:30:05.387Z,58.53
2018-06-03T17:33:08.157Z,58.44
2018-06-03T17:36:10.852Z,58.22
2018-06-03T17:39:13.717Z,58.24
2018-06-03T17:42:16.344Z,58.34
2018-06-03T17:45:18.993Z,58.05
2018-06-03T17:48:21.753Z,58.83
2018-06-03T17:51:24.544Z,58.69
2018-06-03T17:54:27.181Z,58.52
2018-06-03T17:57:30.487Z,58.50
2018-06-03T18:00:33.339Z,58.25
2018-06-03T18:03:36.095Z,58.35
2018-06-03T18:06:38.713Z,58.57
2018-06-03T18:09:41.365Z,58.40
2018-06-03T18:12:44.974Z,58.79
2018-06-03T18:15:49.459Z,58.27
2018-06-03T18:18:52.732Z,58.61
2018-06-03T18:21:57.596Z,58.22
2018-06-03T18:25:00.641Z,59.34
2018-06-03T18:28:04.448Z,59.35
2018-06-03T18:31:07.107Z,58.76
2018-06-03T18:34:09.852Z,58.79
2018-06-03T18:37:12.570Z,58.99
2018-06-03T18:40:15.153Z,58.93
2018-06-03T18:43:17.926Z,58.73
2018-06-03T18:46:20.672Z,59.61
2018-06-03T18:49:23.444Z,59.67
2018-06-03T18:52:26.329Z,59.35
2018-06-03T18:55:29.020Z,59.76
2018-06-03T18:58:31.696Z,59.44
2018-06-03T19:01:35.304Z,59.82
2018-06-03T19:04:37.971Z,59.92
2018-06-03T19:07:40.595Z,60.38
2018-06-03T19:10:43.452Z,60.59
2018-06-03T19:13:46.655Z,60.71
2018-06-03T19:16:49.292Z,61.52
2018-06-03T19:19:51.946Z,61.47
2018-06-03T19:22:55.835Z,61.45
2018-06-03T19:26:02.529Z,61.93
2018-06-03T19:29:05.975Z,62.03
2018-06-03T19:32:09.746Z,61.44
2018-06-03T19:35:14.353Z,61.81
2018-06-03T19:38:17.521Z,62.45
2018-06-03T19:41:21.414Z,62.70
2018-06-03T19:44:25.879Z,62.64
2018-06-03T19:47:30.426Z,62.44
2018-06-03T19:50:33.379Z,62.95
2018-06-03T19:53:37.417Z,62.87
2018-06-03T19:56:40.078Z,62.72
2018-06-03T19:59:43.202Z,62.31
2018-06-03T20:02:46.255Z,62.08
2018-06-03T20:05:49.138Z,62.55
2018-06-03T20:08:51.806Z,63.41
2018-06-03T20:11:54.459Z,63.23
2018-06-03T20:14:57.105Z,62.78
2018-06-03T20:17:59.803Z,62.69
2018-06-03T20:21:02.384Z,63.41
2018-06-03T20:24:05.035Z,63.05
2018-06-03T20:27:07.711Z,63.29
2018-06-03T20:30:10.505Z,63.48
2018-06-03T20:33:13.134Z,63.04
2018-06-03T20:36:15.781Z,63.78
2018-06-03T20:39:18.368Z,63.31
2018-06-03T20:42:21.026Z,63.74
2018-06-03T20:45:23.635Z,63.89
2018-06-03T20:48:26.246Z,63.82
2018-06-03T20:51:28.829Z,63.18
2018-06-03T20:55:22.502Z,63.85
2018-06-03T20:58:25.983Z,64.59
2018-06-03T21:01:29.351Z,65.01
2018-06-03T21:04:36.010Z,64.68
2018-06-03T21:07:39.539Z,64.53
2018-06-03T21:10:42.974Z,64.54
2018-06-03T21:13:46.442Z,64.94
2018-06-03T21:16:51.910Z,65.38
2018-06-03T21:19:55.565Z,65.18
2018-06-03T21:22:59.946Z,65.60
2018-06-03T21:26:03.331Z,65.17
2018-06-03T21:29:06.674Z,65.42
2018-06-03T21:32:09.951Z,65.38
2018-06-03T21:35:13.311Z,65.64
2018-06-03T21:38:16.695Z,65.15
2018-06-03T21:41:19.959Z,65.03
2018-06-03T21:44:23.290Z,65.74
2018-06-03T21:47:26.625Z,65.79
2018-06-03T21:50:29.991Z,65.74
2018-06-03T21:53:33.342Z,65.76
2018-06-03T21:56:36.671Z,65.51
2018-06-03T21:59:40.007Z,65.32
2018-06-03T22:02:43.506Z,64.84
2018-06-03T22:05:46.857Z,65.15
2018-06-03T22:08:50.174Z,65.22
2018-06-03T22:11:53.461Z,66.03
2018-06-03T22:14:56.736Z,66.05
2018-06-03T22:18:00.110Z,65.68
2018-06-03T22:21:03.362Z,66.46
2018-06-03T22:24:06.623Z,66.52
2018-06-03T22:27:09.807Z,66.80
2018-06-03T22:30:13.011Z,66.36
2018-06-03T22:33:16.303Z,66.42
2018-06-03T22:36:19.492Z,66.39
2018-06-03T22:39:22.829Z,66.82
2018-06-03T22:42:26.090Z,67.06
2018-06-03T22:45:29.353Z,67.09
2018-06-03T22:48:32.622Z,67.52
2018-06-03T22:51:35.877Z,67.57
2018-06-03T22:54:39.177Z,67.10
2018-06-03T22:57:48.902Z,67.39
2018-06-03T23:00:52.359Z,67.50
2018-06-03T23:03:55.644Z,66.91
2018-06-03T23:06:58.958Z,67.52
2018-06-03T23:10:02.291Z,67.73
2018-06-03T23:13:05.585Z,68.61
2018-06-03T23:16:08.824Z,68.65
2018-06-03T23:19:13.329Z,68.63
2018-06-03T23:22:16.559Z,68.81
2018-06-03T23:25:19.854Z,68.90
2018-06-03T23:28:23.625Z,68.49
2018-06-03T23:31:26.895Z,68.54
2018-06-03T23:34:30.112Z,68.81
2018-06-03T23:37:33.289Z,68.72
2018-06-03T23:40:36.541Z,69.02
2018-06-03T23:43:39.719Z,69.77
2018-06-03T23:46:42.978Z,69.96
2018-06-03T23:49:46.135Z,69.37
2018-06-03T23:52:49.376Z,69.54
2018-06-03T23:55:52.593Z,69.43
2018-06-03T23:58:55.757Z,68.83
